Terminal Aerodrome Forecast
Issued by NWS Wilmington, OH

Current Version | Previous Version | Text Only | Print | Product List | Glossary Off
Versions: 1 2 3 4 5 6 7 8 9 10 11 12 13 14 15 16 17

000
FTUS41 KILN 292053 AAC
TAFDAY
TAF AMD
KDAY 292053Z 2921/3018 27007KT P6SM VCTS SCT040CB BKN200
      TEMPO 2921/2922 25020KT 1SM TSRA BR SCT008 BKN025CB
     FM292200 30006KT P6SM SCT120
     FM300600 32007KT P6SM SCT020
     FM301400 30007KT P6SM FEW035=

USA.gov is the U.S. government's official web portal to all federal, state and local government web resources and services.